sensor_id;sensor_type;location;lat;lon;timestamp;pressure;altitude;pressure_sealevel;temperature;humidity
23643;BME280;11998;55.788;37.572;2023-07-02T00:00:24;96871.25;;;86.18;11.96
23643;BME280;11998;55.788;37.572;2023-07-02T00:01:25;96874.91;;;87.07;11.90
23643;BME280;11998;55.788;37.572;2023-07-02T00:02:25;96879.97;;;87.14;11.89
23643;BME280;11998;55.788;37.572;2023-07-02T00:03:26;96868.75;;;85.79;12.12
23643;BME280;11998;55.788;37.572;2023-07-02T00:04:26;96870.78;;;86.92;11.87
23643;BME280;11998;55.788;37.572;2023-07-02T00:05:27;96878.25;;;87.20;11.96
23643;BME280;11998;55.788;37.572;2023-07-02T00:06:28;96881.38;;;87.13;11.89
23643;BME280;11998;55.788;37.572;2023-07-02T00:07:28;96876.44;;;87.35;11.72
23643;BME280;11998;55.788;37.572;2023-07-02T00:08:29;96890.56;;;88.41;11.85
23643;BME280;11998;55.788;37.572;2023-07-02T00:09:29;96883.56;;;87.97;11.71
23643;BME280;11998;55.788;37.572;2023-07-02T00:10:30;96890.72;;;87.55;11.88
23643;BME280;11998;55.788;37.572;2023-07-02T00:11:30;96887.63;;;87.92;11.76
23643;BME280;11998;55.788;37.572;2023-07-02T00:12:31;96888.56;;;87.95;11.90
23643;BME280;11998;55.788;37.572;2023-07-02T00:13:31;96890.91;;;87.67;11.90
23643;BME280;11998;55.788;37.572;2023-07-02T00:14:32;96883.00;;;87.43;11.99
23643;BME280;11998;55.788;37.572;2023-07-02T00:15:33;96883.00;;;86.87;12.01
23643;BME280;11998;55.788;37.572;2023-07-02T00:16:35;96878.66;;;86.97;11.75
23643;BME280;11998;55.788;37.572;2023-07-02T00:17:36;96888.88;;;87.60;11.74
23643;BME280;11998;55.788;37.572;2023-07-02T00:18:40;96879.16;;;88.18;11.90
23643;BME280;11998;55.788;37.572;2023-07-02T00:19:40;96896.13;;;88.05;12.19
23643;BME280;11998;55.788;37.572;2023-07-02T00:20:42;96890.13;;;87.47;12.03
23643;BME280;11998;55.788;37.572;2023-07-02T00:21:43;96880.66;;;86.95;12.05
23643;BME280;11998;55.788;37.572;2023-07-02T00:22:43;96881.63;;;86.70;12.06
23643;BME280;11998;55.788;37.572;2023-07-02T00:23:46;96870.63;;;86.19;12.01
23643;BME280;11998;55.788;37.572;2023-07-02T00:24:46;96868.13;;;86.60;12.11
23643;BME280;11998;55.788;37.572;2023-07-02T00:25:47;96873.13;;;86.94;11.81
23643;BME280;11998;55.788;37.572;2023-07-02T00:26:48;96869.19;;;85.76;12.03
23643;BME280;11998;55.788;37.572;2023-07-02T00:27:48;96871.81;;;86.51;11.99
23643;BME280;11998;55.788;37.572;2023-07-02T00:28:49;96873.91;;;86.94;11.88
23643;BME280;11998;55.788;37.572;2023-07-02T00:29:50;96879.56;;;86.90;12.09
23643;BME280;11998;55.788;37.572;2023-07-02T00:30:50;96880.69;;;86.68;12.08
23643;BME280;11998;55.788;37.572;2023-07-02T00:31:51;96889.75;;;87.43;12.05
23643;BME280;11998;55.788;37.572;2023-07-02T00:32:51;96895.75;;;87.63;11.91
23643;BME280;11998;55.788;37.572;2023-07-02T00:33:52;96894.44;;;87.27;12.13
23643;BME280;11998;55.788;37.572;2023-07-02T00:34:52;96889.94;;;86.72;11.92
23643;BME280;11998;55.788;37.572;2023-07-02T00:35:53;96885.97;;;86.60;12.16
23643;BME280;11998;55.788;37.572;2023-07-02T00:36:53;96883.19;;;86.98;12.01
23643;BME280;11998;55.788;37.572;2023-07-02T00:37:54;96885.16;;;86.32;12.08
23643;BME280;11998;55.788;37.572;2023-07-02T00:38:55;96888.16;;;86.15;12.19
23643;BME280;11998;55.788;37.572;2023-07-02T00:39:56;96886.06;;;86.52;11.96
23643;BME280;11998;55.788;37.572;2023-07-02T00:40:57;96879.63;;;86.73;11.84
23643;BME280;11998;55.788;37.572;2023-07-02T00:42:04;96893.56;;;87.53;11.77
23643;BME280;11998;55.788;37.572;2023-07-02T00:43:04;96892.69;;;87.24;12.11
23643;BME280;11998;55.788;37.572;2023-07-02T00:44:05;96889.75;;;86.87;12.04
23643;BME280;11998;55.788;37.572;2023-07-02T00:45:06;96882.34;;;86.34;12.16
23643;BME280;11998;55.788;37.572;2023-07-02T00:46:07;96883.63;;;86.85;11.89
23643;BME280;11998;55.788;37.572;2023-07-02T00:47:08;96884.63;;;87.63;11.81
23643;BME280;11998;55.788;37.572;2023-07-02T00:48:09;96895.00;;;87.72;12.04
23643;BME280;11998;55.788;37.572;2023-07-02T00:49:10;96896.25;;;87.59;11.98
23643;BME280;11998;55.788;37.572;2023-07-02T00:50:11;96895.44;;;87.59;12.07
23643;BME280;11998;55.788;37.572;2023-07-02T00:51:15;96900.97;;;87.16;12.18
23643;BME280;11998;55.788;37.572;2023-07-02T00:52:16;96892.53;;;87.22;11.92
23643;BME280;11998;55.788;37.572;2023-07-02T00:53:18;96902.47;;;86.97;12.20
23643;BME280;11998;55.788;37.572;2023-07-02T00:54:19;96883.28;;;85.75;11.95
23643;BME280;11998;55.788;37.572;2023-07-02T00:55:19;96889.28;;;86.20;11.91
23643;BME280;11998;55.788;37.572;2023-07-02T00:56:22;96894.00;;;86.67;11.90
23643;BME280;11998;55.788;37.572;2023-07-02T00:57:22;96900.72;;;87.31;12.11
23643;BME280;11998;55.788;37.572;2023-07-02T00:58:23;96898.88;;;86.45;12.18
23643;BME280;11998;55.788;37.572;2023-07-02T00:59:24;96893.75;;;86.55;12.21
23643;BME280;11998;55.788;37.572;2023-07-02T01:00:24;96899.72;;;87.19;11.95
23643;BME280;11998;55.788;37.572;2023-07-02T01:01:26;96897.19;;;86.52;11.87
23643;BME280;11998;55.788;37.572;2023-07-02T01:02:28;96902.50;;;85.74;12.14
23643;BME280;11998;55.788;37.572;2023-07-02T01:03:29;96902.41;;;86.61;11.86
23643;BME280;11998;55.788;37.572;2023-07-02T01:04:33;96905.59;;;86.99;11.96
23643;BME280;11998;55.788;37.572;2023-07-02T01:05:33;96900.97;;;87.16;11.95
23643;BME280;11998;55.788;37.572;2023-07-02T01:06:37;96891.25;;;86.52;12.18
23643;BME280;11998;55.788;37.572;2023-07-02T01:07:41;96900.41;;;87.27;12.15
23643;BME280;11998;55.788;37.572;2023-07-02T01:08:42;96902.47;;;86.97;12.03
23643;BME280;11998;55.788;37.572;2023-07-02T01:09:45;96902.28;;;87.32;11.76
23643;BME280;11998;55.788;37.572;2023-07-02T01:10:46;96905.81;;;87.77;11.82
23643;BME280;11998;55.788;37.572;2023-07-02T01:11:49;96907.72;;;88.01;11.77
23643;BME280;11998;55.788;37.572;2023-07-02T01:12:52;96908.19;;;87.78;12.03
23643;BME280;11998;55.788;37.572;2023-07-02T01:13:57;96898.63;;;87.99;11.82
23643;BME280;11998;55.788;37.572;2023-07-02T01:15:02;96902.97;;;87.60;12.13
23643;BME280;11998;55.788;37.572;2023-07-02T01:16:05;96900.41;;;86.02;12.23
23643;BME280;11998;55.788;37.572;2023-07-02T01:17:06;96899.44;;;86.88;11.95
23643;BME280;11998;55.788;37.572;2023-07-02T01:18:07;96895.06;;;86.62;11.90
23643;BME280;11998;55.788;37.572;2023-07-02T01:19:12;96903.53;;;86.92;11.88
23643;BME280;11998;55.788;37.572;2023-07-02T01:20:14;96898.75;;;86.53;12.13
23643;BME280;11998;55.788;37.572;2023-07-02T01:21:15;96892.47;;;85.87;12.27
23643;BME280;11998;55.788;37.572;2023-07-02T01:22:15;96902.69;;;86.82;12.17
23643;BME280;11998;55.788;37.572;2023-07-02T01:23:16;96896.34;;;85.72;12.13
23643;BME280;11998;55.788;37.572;2023-07-02T01:24:17;96886.88;;;85.07;12.04
23643;BME280;11998;55.788;37.572;2023-07-02T01:25:18;96884.72;;;84.74;12.48
23643;BME280;11998;55.788;37.572;2023-07-02T01:26:19;96876.78;;;84.44;12.06
23643;BME280;11998;55.788;37.572;2023-07-02T01:27:19;96886.41;;;85.35;12.07
23643;BME280;11998;55.788;37.572;2023-07-02T01:28:20;96890.69;;;86.01;12.02
23643;BME280;11998;55.788;37.572;2023-07-02T01:29:24;96884.97;;;85.44;11.97
23643;BME280;11998;55.788;37.572;2023-07-02T01:30:25;96902.19;;;86.49;12.09
23643;BME280;11998;55.788;37.572;2023-07-02T01:31:26;96916.41;;;87.41;11.95
23643;BME280;11998;55.788;37.572;2023-07-02T01:32:26;96927.13;;;87.64;12.03
23643;BME280;11998;55.788;37.572;2023-07-02T01:33:27;96919.00;;;87.18;12.07
23643;BME280;11998;55.788;37.572;2023-07-02T01:34:28;96918.84;;;87.16;12.08
23643;BME280;11998;55.788;37.572;2023-07-02T01:35:29;96924.06;;;86.88;12.07
23643;BME280;11998;55.788;37.572;2023-07-02T01:36:29;96938.63;;;87.96;11.94
23643;BME280;11998;55.788;37.572;2023-07-02T01:37:30;96926.50;;;86.82;12.17
23643;BME280;11998;55.788;37.572;2023-07-02T01:38:37;96916.41;;;86.68;12.29
23643;BME280;11998;55.788;37.572;2023-07-02T01:39:38;96911.34;;;85.99;12.08
23643;BME280;11998;55.788;37.572;2023-07-02T01:40:38;96911.75;;;85.78;12.25
23643;BME280;11998;55.788;37.572;2023-07-02T01:41:45;96911.94;;;86.15;11.93
23643;BME280;11998;55.788;37.572;2023-07-02T01:42:45;96907.84;;;86.55;12.35
23643;BME280;11998;55.788;37.572;2023-07-02T01:43:46;96924.78;;;87.62;11.91
23643;BME280;11998;55.788;37.572;2023-07-02T01:44:48;96913.00;;;87.54;11.98
23643;BME280;11998;55.788;37.572;2023-07-02T01:45:50;96919.44;;;87.05;12.06
23643;BME280;11998;55.788;37.572;2023-07-02T01:46:51;96903.47;;;86.56;11.88
23643;BME280;11998;55.788;37.572;2023-07-02T01:47:52;96910.78;;;86.72;11.96
23643;BME280;11998;55.788;37.572;2023-07-02T01:48:53;96915.03;;;87.52;11.86
23643;BME280;11998;55.788;37.572;2023-07-02T01:49:53;96911.06;;;86.93;11.98
23643;BME280;11998;55.788;37.572;2023-07-02T01:50:54;96906.13;;;86.52;11.94
23643;BME280;11998;55.788;37.572;2023-07-02T01:51:55;96920.22;;;87.51;11.88
23643;BME280;11998;55.788;37.572;2023-07-02T01:52:56;96919.63;;;87.16;11.91
23643;BME280;11998;55.788;37.572;2023-07-02T01:53:57;96923.91;;;87.98;11.77
23643;BME280;11998;55.788;37.572;2023-07-02T01:54:57;96912.59;;;86.85;11.92
23643;BME280;11998;55.788;37.572;2023-07-02T01:55:58;96926.66;;;87.11;12.08
23643;BME280;11998;55.788;37.572;2023-07-02T01:56:59;96921.13;;;87.44;12.05
23643;BME280;11998;55.788;37.572;2023-07-02T01:58:00;96919.63;;;87.82;12.01
23643;BME280;11998;55.788;37.572;2023-07-02T01:59:01;96907.59;;;86.43;12.23
23643;BME280;11998;55.788;37.572;2023-07-02T02:00:02;96926.19;;;87.61;11.80
23643;BME280;11998;55.788;37.572;2023-07-02T02:01:02;96921.13;;;87.44;11.89
23643;BME280;11998;55.788;37.572;2023-07-02T02:02:03;96926.69;;;87.67;12.12
23643;BME280;11998;55.788;37.572;2023-07-02T02:03:04;96913.69;;;86.35;12.05
23643;BME280;11998;55.788;37.572;2023-07-02T02:04:04;96907.56;;;86.16;12.04
23643;BME280;11998;55.788;37.572;2023-07-02T02:05:05;96904.84;;;85.76;12.37
23643;BME280;11998;55.788;37.572;2023-07-02T02:06:06;96898.06;;;85.41;12.01
23643;BME280;11998;55.788;37.572;2023-07-02T02:07:07;96899.47;;;86.43;12.17
23643;BME280;11998;55.788;37.572;2023-07-02T02:08:07;96901.78;;;85.83;12.12
23643;BME280;11998;55.788;37.572;2023-07-02T02:09:08;96916.81;;;87.18;12.00
23643;BME280;11998;55.788;37.572;2023-07-02T02:10:09;96911.34;;;86.61;12.02
23643;BME280;11998;55.788;37.572;2023-07-02T02:11:10;96916.06;;;86.64;11.96
23643;BME280;11998;55.788;37.572;2023-07-02T02:12:11;96918.69;;;87.14;11.97
23643;BME280;11998;55.788;37.572;2023-07-02T02:13:11;96918.84;;;87.16;11.95
23643;BME280;11998;55.788;37.572;2023-07-02T02:14:12;96925.03;;;87.01;11.91
23643;BME280;11998;55.788;37.572;2023-07-02T02:15:12;96928.59;;;86.89;12.08
23643;BME280;11998;55.788;37.572;2023-07-02T02:16:14;96927.22;;;87.37;11.79
23643;BME280;11998;55.788;37.572;2023-07-02T02:17:15;96926.09;;;86.86;12.06
23643;BME280;11998;55.788;37.572;2023-07-02T02:18:15;96914.59;;;86.82;12.18
23643;BME280;11998;55.788;37.572;2023-07-02T02:19:16;96913.19;;;86.12;11.98
23643;BME280;11998;55.788;37.572;2023-07-02T02:20:16;96922.31;;;86.41;12.09
23643;BME280;11998;55.788;37.572;2023-07-02T02:21:18;96918.94;;;87.35;12.11
23643;BME280;11998;55.788;37.572;2023-07-02T02:22:18;96909.47;;;86.21;12.17
23643;BME280;11998;55.788;37.572;2023-07-02T02:23:19;96913.31;;;86.31;12.06
23643;BME280;11998;55.788;37.572;2023-07-02T02:24:20;96913.44;;;86.68;12.08
23643;BME280;11998;55.788;37.572;2023-07-02T02:25:20;96923.41;;;87.73;11.91
23643;BME280;11998;55.788;37.572;2023-07-02T02:26:21;96909.50;;;87.29;11.90
23643;BME280;11998;55.788;37.572;2023-07-02T02:27:25;96911.78;;;87.11;12.20
23643;BME280;11998;55.788;37.572;2023-07-02T02:28:25;96910.66;;;87.07;12.00
23643;BME280;11998;55.788;37.572;2023-07-02T02:29:26;96919.25;;;87.59;11.90
23643;BME280;11998;55.788;37.572;2023-07-02T02:30:27;96923.72;;;87.96;11.82
23643;BME280;11998;55.788;37.572;2023-07-02T02:31:27;96932.25;;;88.09;11.83
23643;BME280;11998;55.788;37.572;2023-07-02T02:32:28;96924.34;;;87.75;12.04
23643;BME280;11998;55.788;37.572;2023-07-02T02:33:29;96931.22;;;88.55;11.89
23643;BME280;11998;55.788;37.572;2023-07-02T02:34:30;96928.13;;;87.95;11.88
23643;BME280;11998;55.788;37.572;2023-07-02T02:35:30;96926.19;;;87.51;12.06
23643;BME280;11998;55.788;37.572;2023-07-02T02:36:31;96906.81;;;86.42;12.11
23643;BME280;11998;55.788;37.572;2023-07-02T02:37:34;96907.47;;;86.68;12.16
23643;BME280;11998;55.788;37.572;2023-07-02T02:38:37;96912.53;;;87.48;12.05
23643;BME280;11998;55.788;37.572;2023-07-02T02:39:38;96919.97;;;87.86;12.10
23643;BME280;11998;55.788;37.572;2023-07-02T02:40:38;96925.31;;;88.17;11.95
23643;BME280;11998;55.788;37.572;2023-07-02T02:41:39;96930.66;;;88.47;12.00
23643;BME280;11998;55.788;37.572;2023-07-02T02:42:39;96930.00;;;88.00;11.94
23643;BME280;11998;55.788;37.572;2023-07-02T02:43:43;96924.03;;;88.20;11.91
23643;BME280;11998;55.788;37.572;2023-07-02T02:44:44;96935.66;;;87.96;12.04
23643;BME280;11998;55.788;37.572;2023-07-02T02:45:44;96931.75;;;87.84;12.02
23643;BME280;11998;55.788;37.572;2023-07-02T02:46:45;96940.06;;;88.34;11.87
23643;BME280;11998;55.788;37.572;2023-07-02T02:47:46;96919.28;;;86.58;12.17
23643;BME280;11998;55.788;37.572;2023-07-02T02:48:46;96918.56;;;86.40;12.07
23643;BME280;11998;55.788;37.572;2023-07-02T02:49:47;96919.34;;;86.85;12.01
23643;BME280;11998;55.788;37.572;2023-07-02T02:50:47;96914.22;;;86.24;12.25
23643;BME280;11998;55.788;37.572;2023-07-02T02:51:48;96923.66;;;87.58;12.03
23643;BME280;11998;55.788;37.572;2023-07-02T02:52:48;96921.34;;;87.10;11.93
23643;BME280;11998;55.788;37.572;2023-07-02T02:53:49;96929.38;;;87.73;11.96
23643;BME280;11998;55.788;37.572;2023-07-02T02:54:50;96923.59;;;86.65;12.22
23643;BME280;11998;55.788;37.572;2023-07-02T02:55:53;96927.97;;;86.64;12.07
23643;BME280;11998;55.788;37.572;2023-07-02T02:56:54;96926.91;;;86.07;12.23
23643;BME280;11998;55.788;37.572;2023-07-02T02:57:54;96921.38;;;85.69;12.17
23643;BME280;11998;55.788;37.572;2023-07-02T02:58:55;96924.13;;;85.50;12.08
23643;BME280;11998;55.788;37.572;2023-07-02T02:59:55;96920.63;;;85.86;12.12
23643;BME280;11998;55.788;37.572;2023-07-02T03:00:56;96917.88;;;85.80;12.34
23643;BME280;11998;55.788;37.572;2023-07-02T03:01:56;96926.34;;;86.80;12.12
23643;BME280;11998;55.788;37.572;2023-07-02T03:02:58;96925.56;;;86.18;12.08
23643;BME280;11998;55.788;37.572;2023-07-02T03:03:59;96929.00;;;86.14;12.27
23643;BME280;11998;55.788;37.572;2023-07-02T03:04:59;96935.34;;;86.46;12.35
23643;BME280;11998;55.788;37.572;2023-07-02T03:06:03;96940.69;;;87.28;12.14
23643;BME280;11998;55.788;37.572;2023-07-02T03:07:03;96934.72;;;86.64;11.95
23643;BME280;11998;55.788;37.572;2023-07-02T03:08:04;96945.59;;;86.79;12.22
23643;BME280;11998;55.788;37.572;2023-07-02T03:09:05;96947.38;;;87.19;11.85
23643;BME280;11998;55.788;37.572;2023-07-02T03:10:06;96954.06;;;87.46;11.97
23643;BME280;11998;55.788;37.572;2023-07-02T03:11:07;96947.53;;;87.21;12.02
23643;BME280;11998;55.788;37.572;2023-07-02T03:12:08;96956.50;;;86.67;12.08
23643;BME280;11998;55.788;37.572;2023-07-02T03:13:09;96950.59;;;85.98;12.10
23643;BME280;11998;55.788;37.572;2023-07-02T03:14:09;96951.63;;;86.45;11.94
23643;BME280;11998;55.788;37.572;2023-07-02T03:15:10;96949.00;;;85.12;12.34
23643;BME280;11998;55.788;37.572;2023-07-02T03:16:10;96947.66;;;85.30;12.35
23643;BME280;11998;55.788;37.572;2023-07-02T03:17:12;96949.81;;;85.55;12.16
23643;BME280;11998;55.788;37.572;2023-07-02T03:18:13;96942.69;;;85.08;12.37
23643;BME280;11998;55.788;37.572;2023-07-02T03:19:13;96960.78;;;85.70;12.08
23643;BME280;11998;55.788;37.572;2023-07-02T03:20:16;96949.53;;;86.20;12.24
23643;BME280;11998;55.788;37.572;2023-07-02T03:21:17;96952.00;;;86.14;12.33
23643;BME280;11998;55.788;37.572;2023-07-02T03:22:17;96956.97;;;85.94;12.04
23643;BME280;11998;55.788;37.572;2023-07-02T03:23:18;96948.72;;;84.93;12.21
23643;BME280;11998;55.788;37.572;2023-07-02T03:24:18;96954.66;;;85.43;12.23
23643;BME280;11998;55.788;37.572;2023-07-02T03:25:19;96960.88;;;85.79;11.99
23643;BME280;11998;55.788;37.572;2023-07-02T03:26:19;96952.69;;;83.77;12.29
23643;BME280;11998;55.788;37.572;2023-07-02T03:27:20;96951.19;;;84.71;12.30
23643;BME280;11998;55.788;37.572;2023-07-02T03:28:21;96954.28;;;85.89;12.06
23643;BME280;11998;55.788;37.572;2023-07-02T03:29:21;96951.41;;;85.06;12.21
23643;BME280;11998;55.788;37.572;2023-07-02T03:30:22;96959.06;;;86.19;12.00
23643;BME280;11998;55.788;37.572;2023-07-02T03:31:23;96949.84;;;86.59;12.09
23643;BME280;11998;55.788;37.572;2023-07-02T03:32:23;96965.16;;;86.99;11.91
23643;BME280;11998;55.788;37.572;2023-07-02T03:33:24;96974.00;;;86.63;12.15
23643;BME280;11998;55.788;37.572;2023-07-02T03:34:25;96972.69;;;87.01;11.98
23643;BME280;11998;55.788;37.572;2023-07-02T03:35:26;96966.34;;;86.08;12.27
23643;BME280;11998;55.788;37.572;2023-07-02T03:36:26;96961.00;;;85.47;12.40
23643;BME280;11998;55.788;37.572;2023-07-02T03:37:27;96965.28;;;85.96;12.35
23643;BME280;11998;55.788;37.572;2023-07-02T03:38:27;96960.91;;;86.31;12.11
23643;BME280;11998;55.788;37.572;2023-07-02T03:39:28;96976.69;;;87.49;12.03
23643;BME280;11998;55.788;37.572;2023-07-02T03:40:28;96968.63;;;87.06;12.14
23643;BME280;11998;55.788;37.572;2023-07-02T03:41:29;96971.88;;;87.27;12.00
23643;BME280;11998;55.788;37.572;2023-07-02T03:42:30;96969.00;;;87.56;12.20
23643;BME280;11998;55.788;37.572;2023-07-02T03:43:30;96972.28;;;86.60;12.21
23643;BME280;11998;55.788;37.572;2023-07-02T03:44:31;96981.09;;;86.67;12.03
23643;BME280;11998;55.788;37.572;2023-07-02T03:45:31;96971.94;;;86.38;12.17
23643;BME280;11998;55.788;37.572;2023-07-02T03:46:32;96977.47;;;87.50;12.03
23643;BME280;11998;55.788;37.572;2023-07-02T03:47:32;96985.50;;;87.67;12.00
23643;BME280;11998;55.788;37.572;2023-07-02T03:48:33;96965.97;;;86.04;12.43
23643;BME280;11998;55.788;37.572;2023-07-02T03:49:34;96976.16;;;87.07;11.90
23643;BME280;11998;55.788;37.572;2023-07-02T03:50:34;96989.22;;;87.21;12.13
23643;BME280;11998;55.788;37.572;2023-07-02T03:51:35;96978.88;;;85.81;12.31
23643;BME280;11998;55.788;37.572;2023-07-02T03:52:35;96969.19;;;86.94;12.28
23643;BME280;11998;55.788;37.572;2023-07-02T03:53:38;96974.50;;;86.86;12.10
23643;BME280;11998;55.788;37.572;2023-07-02T03:54:38;96972.00;;;86.92;12.09
23643;BME280;11998;55.788;37.572;2023-07-02T03:55:39;96979.50;;;87.47;12.14
23643;BME280;11998;55.788;37.572;2023-07-02T03:56:41;96994.22;;;88.11;11.88
23643;BME280;11998;55.788;37.572;2023-07-02T03:57:41;96997.22;;;88.59;11.97
23643;BME280;11998;55.788;37.572;2023-07-02T03:58:42;96995.31;;;88.54;11.91
23643;BME280;11998;55.788;37.572;2023-07-02T03:59:43;96998.53;;;87.25;12.30
23643;BME280;11998;55.788;37.572;2023-07-02T04:00:43;96988.53;;;87.40;12.16
23643;BME280;11998;55.788;37.572;2023-07-02T04:01:44;96982.91;;;87.90;12.25
23643;BME280;11998;55.788;37.572;2023-07-02T04:02:45;96988.19;;;87.82;11.93
23643;BME280;11998;55.788;37.572;2023-07-02T04:03:49;96978.66;;;87.93;11.84
23643;BME280;11998;55.788;37.572;2023-07-02T04:04:50;96979.66;;;88.25;12.19
23643;BME280;11998;55.788;37.572;2023-07-02T04:05:51;96988.56;;;87.86;11.94
23643;BME280;11998;55.788;37.572;2023-07-02T04:06:51;96984.31;;;88.08;12.08
23643;BME280;11998;55.788;37.572;2023-07-02T04:07:52;96984.34;;;88.47;12.06
23643;BME280;11998;55.788;37.572;2023-07-02T04:08:52;96994.81;;;88.87;11.77
23643;BME280;11998;55.788;37.572;2023-07-02T04:09:53;97002.94;;;89.46;11.77
23643;BME280;11998;55.788;37.572;2023-07-02T04:10:54;97007.16;;;89.12;11.97
23643;BME280;11998;55.788;37.572;2023-07-02T04:11:55;97009.25;;;89.72;11.87
23643;BME280;11998;55.788;37.572;2023-07-02T04:12:55;97013.47;;;90.00;11.93
23643;BME280;11998;55.788;37.572;2023-07-02T04:13:56;97003.47;;;90.07;11.71
23643;BME280;11998;55.788;37.572;2023-07-02T04:14:56;97014.22;;;90.76;11.88
23643;BME280;11998;55.788;37.572;2023-07-02T04:15:57;97016.03;;;90.70;11.69
23643;BME280;11998;55.788;37.572;2023-07-02T04:16:57;97008.63;;;90.38;11.92
23643;BME280;11998;55.788;37.572;2023-07-02T04:17:58;97020.56;;;91.27;11.80
23643;BME280;11998;55.788;37.572;2023-07-02T04:18:58;97029.44;;;91.72;11.70
23643;BME280;11998;55.788;37.572;2023-07-02T04:20:00;97039.44;;;92.37;11.53
23643;BME280;11998;55.788;37.572;2023-07-02T04:21:03;97043.41;;;92.79;11.44
23643;BME280;11998;55.788;37.572;2023-07-02T04:22:03;97044.38;;;92.95;11.92
23643;BME280;11998;55.788;37.572;2023-07-02T04:23:05;97033.72;;;92.29;11.66
23643;BME280;11998;55.788;37.572;2023-07-02T04:24:06;97047.63;;;92.74;11.81
23643;BME280;11998;55.788;37.572;2023-07-02T04:25:07;97045.09;;;93.07;11.75
23643;BME280;11998;55.788;37.572;2023-07-02T04:26:07;97045.41;;;92.74;11.58
23643;BME280;11998;55.788;37.572;2023-07-02T04:27:08;97049.66;;;92.83;12.07
23643;BME280;11998;55.788;37.572;2023-07-02T04:28:09;97051.69;;;92.92;11.47
23643;BME280;11998;55.788;37.572;2023-07-02T04:29:09;97037.09;;;92.36;11.97
23643;BME280;11998;55.788;37.572;2023-07-02T04:30:12;97038.91;;;92.41;11.80
23643;BME280;11998;55.788;37.572;2023-07-02T04:31:12;97036.19;;;91.84;11.73
23643;BME280;11998;55.788;37.572;2023-07-02T04:32:13;97035.53;;;91.97;11.62
23643;BME280;11998;55.788;37.572;2023-07-02T04:33:14;97031.97;;;92.13;11.71
23643;BME280;11998;55.788;37.572;2023-07-02T04:34:14;97040.91;;;92.62;11.79
23643;BME280;11998;55.788;37.572;2023-07-02T04:35:15;97034.13;;;91.75;11.79
23643;BME280;11998;55.788;37.572;2023-07-02T04:36:15;97029.56;;;92.23;11.72
23643;BME280;11998;55.788;37.572;2023-07-02T04:37:16;97035.09;;;92.03;11.82
23643;BME280;11998;55.788;37.572;2023-07-02T04:38:16;97021.09;;;91.82;11.87
23643;BME280;11998;55.788;37.572;2023-07-02T04:39:17;97028.84;;;92.11;11.67
23643;BME280;11998;55.788;37.572;2023-07-02T04:40:18;97023.56;;;91.74;11.81
23643;BME280;11998;55.788;37.572;2023-07-02T04:41:18;97032.84;;;93.03;11.64
23643;BME280;11998;55.788;37.572;2023-07-02T04:42:19;97038.47;;;93.50;11.46
23643;BME280;11998;55.788;37.572;2023-07-02T04:43:20;97058.41;;;95.01;11.22
23643;BME280;11998;55.788;37.572;2023-07-02T04:44:21;97058.81;;;95.56;11.36
23643;BME280;11998;55.788;37.572;2023-07-02T04:45:30;97050.84;;;95.63;11.81
23643;BME280;11998;55.788;37.572;2023-07-02T04:46:36;97059.69;;;95.12;11.46
23643;BME280;11998;55.788;37.572;2023-07-02T04:47:37;97051.06;;;93.88;12.04
23643;BME280;11998;55.788;37.572;2023-07-02T04:48:38;97043.84;;;93.65;11.70
23643;BME280;11998;55.788;37.572;2023-07-02T04:49:38;97041.78;;;94.11;11.47
23643;BME280;11998;55.788;37.572;2023-07-02T04:50:42;97040.53;;;94.89;11.77
23643;BME280;11998;55.788;37.572;2023-07-02T04:51:42;97050.81;;;95.00;11.86
23643;BME280;11998;55.788;37.572;2023-07-02T04:52:43;97049.09;;;95.26;11.50
23643;BME280;11998;55.788;37.572;2023-07-02T04:53:43;97040.28;;;94.69;11.77
23643;BME280;11998;55.788;37.572;2023-07-02T04:54:44;97052.94;;;95.76;11.39
23643;BME280;11998;55.788;37.572;2023-07-02T04:55:44;97054.97;;;96.92;11.36
23643;BME280;11998;55.788;37.572;2023-07-02T04:56:45;97071.66;;;98.12;11.24
23643;BME280;11998;55.788;37.572;2023-07-02T04:57:45;97079.84;;;98.76;11.40
23643;BME280;11998;55.788;37.572;2023-07-02T04:58:46;97082.09;;;99.21;11.03
23643;BME280;11998;55.788;37.572;2023-07-02T04:59:47;97080.03;;;99.28;11.54
23643;BME280;11998;55.788;37.572;2023-07-02T05:00:48;97069.06;;;99.16;11.51
23643;BME280;11998;55.788;37.572;2023-07-02T05:01:48;97067.81;;;98.78;11.39
23643;BME280;11998;55.788;37.572;2023-07-02T05:02:49;97060.41;;;99.31;10.99
23643;BME280;11998;55.788;37.572;2023-07-02T05:03:49;97069.03;;;99.66;11.21
23643;BME280;11998;55.788;37.572;2023-07-02T05:04:50;97071.69;;;100.66;11.25
23643;BME280;11998;55.788;37.572;2023-07-02T05:05:50;97078.84;;;101.85;11.06
23643;BME280;11998;55.788;37.572;2023-07-02T05:06:51;97074.03;;;102.56;10.95
23643;BME280;11998;55.788;37.572;2023-07-02T05:07:52;97073.28;;;103.10;11.17
23643;BME280;11998;55.788;37.572;2023-07-02T05:08:53;97061.75;;;103.61;10.76
23643;BME280;11998;55.788;37.572;2023-07-02T05:09:53;97066.41;;;104.54;10.98
23643;BME280;11998;55.788;37.572;2023-07-02T05:10:54;97060.03;;;104.21;11.25
23643;BME280;11998;55.788;37.572;2023-07-02T05:11:54;97050.09;;;103.42;11.07
23643;BME280;11998;55.788;37.572;2023-07-02T05:12:55;97056.91;;;104.11;10.97
23643;BME280;11998;55.788;37.572;2023-07-02T05:13:55;97059.13;;;104.00;10.76
23643;BME280;11998;55.788;37.572;2023-07-02T05:14:56;97033.59;;;103.02;11.05
23643;BME280;11998;55.788;37.572;2023-07-02T05:15:57;97032.16;;;102.57;11.05
23643;BME280;11998;55.788;37.572;2023-07-02T05:16:57;97006.94;;;100.89;11.55
23643;BME280;11998;55.788;37.572;2023-07-02T05:17:58;96986.63;;;98.48;11.29
23643;BME280;11998;55.788;37.572;2023-07-02T05:18:59;96988.06;;;98.47;11.17